sensor_id;sensor_type;location;lat;lon;timestamp;temperature;humidity
35603;DHT22;21725;50.836;4.368;2023-02-23T00:00:43;12.60;99.90
35603;DHT22;21725;50.836;4.368;2023-02-23T00:03:45;12.60;99.90
35603;DHT22;21725;50.836;4.368;2023-02-23T00:06:48;12.70;99.90
35603;DHT22;21725;50.836;4.368;2023-02-23T00:09:51;12.80;99.90
35603;DHT22;21725;50.836;4.368;2023-02-23T00:12:52;12.80;99.90
35603;DHT22;21725;50.836;4.368;2023-02-23T00:15:53;12.90;99.90
35603;DHT22;21725;50.836;4.368;2023-02-23T00:18:57;12.90;99.90
35603;DHT22;21725;50.836;4.368;2023-02-23T00:21:59;12.80;99.90
35603;DHT22;21725;50.836;4.368;2023-02-23T00:25:00;12.90;99.90
35603;DHT22;21725;50.836;4.368;2023-02-23T00:28:01;12.80;99.90
35603;DHT22;21725;50.836;4.368;2023-02-23T00:31:05;12.80;99.90
35603;DHT22;21725;50.836;4.368;2023-02-23T00:34:06;12.80;99.90
35603;DHT22;21725;50.836;4.368;2023-02-23T00:37:07;12.80;99.90
35603;DHT22;21725;50.836;4.368;2023-02-23T00:40:08;12.90;99.90
35603;DHT22;21725;50.836;4.368;2023-02-23T00:43:15;12.80;99.90
35603;DHT22;21725;50.836;4.368;2023-02-23T00:46:19;12.90;99.90
35603;DHT22;21725;50.836;4.368;2023-02-23T00:49:23;12.80;99.90
35603;DHT22;21725;50.836;4.368;2023-02-23T00:52:24;12.80;99.90
35603;DHT22;21725;50.836;4.368;2023-02-23T00:55:24;12.80;99.90
35603;DHT22;21725;50.836;4.368;2023-02-23T00:58:26;13.00;99.90
35603;DHT22;21725;50.836;4.368;2023-02-23T01:01:27;12.90;99.90
35603;DHT22;21725;50.836;4.368;2023-02-23T01:04:28;12.90;99.90
35603;DHT22;21725;50.836;4.368;2023-02-23T01:07:28;12.90;99.90
35603;DHT22;21725;50.836;4.368;2023-02-23T01:10:29;12.80;99.90
35603;DHT22;21725;50.836;4.368;2023-02-23T01:13:30;12.80;99.90
35603;DHT22;21725;50.836;4.368;2023-02-23T01:16:32;12.80;99.90
35603;DHT22;21725;50.836;4.368;2023-02-23T01:19:33;12.70;99.90
35603;DHT22;21725;50.836;4.368;2023-02-23T01:22:34;12.60;99.90
35603;DHT22;21725;50.836;4.368;2023-02-23T01:25:35;12.50;99.90
35603;DHT22;21725;50.836;4.368;2023-02-23T01:28:35;12.60;99.90
35603;DHT22;21725;50.836;4.368;2023-02-23T01:31:39;12.80;99.90
35603;DHT22;21725;50.836;4.368;2023-02-23T01:34:40;12.90;99.90
35603;DHT22;21725;50.836;4.368;2023-02-23T01:37:42;12.80;99.90
35603;DHT22;21725;50.836;4.368;2023-02-23T01:40:45;12.80;99.90
35603;DHT22;21725;50.836;4.368;2023-02-23T01:47:13;12.70;99.90
35603;DHT22;21725;50.836;4.368;2023-02-23T01:50:15;12.70;99.90
35603;DHT22;21725;50.836;4.368;2023-02-23T01:53:16;12.70;99.90
35603;DHT22;21725;50.836;4.368;2023-02-23T01:56:24;12.70;99.90
35603;DHT22;21725;50.836;4.368;2023-02-23T01:59:32;12.60;99.90
35603;DHT22;21725;50.836;4.368;2023-02-23T02:02:36;12.70;99.90
35603;DHT22;21725;50.836;4.368;2023-02-23T02:05:37;12.90;99.90
35603;DHT22;21725;50.836;4.368;2023-02-23T02:08:47;12.80;99.90
35603;DHT22;21725;50.836;4.368;2023-02-23T02:11:49;12.80;99.90
35603;DHT22;21725;50.836;4.368;2023-02-23T02:14:54;12.90;99.90
35603;DHT22;21725;50.836;4.368;2023-02-23T02:24:42;12.90;99.90
35603;DHT22;21725;50.836;4.368;2023-02-23T02:31:55;12.80;99.90
35603;DHT22;21725;50.836;4.368;2023-02-23T02:35:23;12.80;99.90
35603;DHT22;21725;50.836;4.368;2023-02-23T02:48:11;12.90;99.90
35603;DHT22;21725;50.836;4.368;2023-02-23T02:54:38;12.90;99.90
35603;DHT22;21725;50.836;4.368;2023-02-23T02:57:40;12.90;99.90
35603;DHT22;21725;50.836;4.368;2023-02-23T03:00:45;13.00;99.90
35603;DHT22;21725;50.836;4.368;2023-02-23T03:04:37;12.90;99.90
35603;DHT22;21725;50.836;4.368;2023-02-23T03:11:47;12.90;99.90
35603;DHT22;21725;50.836;4.368;2023-02-23T03:15:26;12.80;99.90
35603;DHT22;21725;50.836;4.368;2023-02-23T03:18:55;12.80;99.90
35603;DHT22;21725;50.836;4.368;2023-02-23T03:22:33;12.90;99.90
35603;DHT22;21725;50.836;4.368;2023-02-23T03:33:21;13.10;99.90
35603;DHT22;21725;50.836;4.368;2023-02-23T03:36:47;13.20;99.90
35603;DHT22;21725;50.836;4.368;2023-02-23T03:40:32;13.10;99.90
35603;DHT22;21725;50.836;4.368;2023-02-23T03:43:58;13.00;99.90
35603;DHT22;21725;50.836;4.368;2023-02-23T03:47:22;13.10;99.90
35603;DHT22;21725;50.836;4.368;2023-02-23T03:50:47;12.90;99.90
35603;DHT22;21725;50.836;4.368;2023-02-23T03:54:23;12.60;99.90
35603;DHT22;21725;50.836;4.368;2023-02-23T03:57:46;12.50;99.90
35603;DHT22;21725;50.836;4.368;2023-02-23T04:01:11;12.50;99.90
35603;DHT22;21725;50.836;4.368;2023-02-23T04:04:32;12.30;99.90
35603;DHT22;21725;50.836;4.368;2023-02-23T04:07:53;12.30;99.90
35603;DHT22;21725;50.836;4.368;2023-02-23T04:11:27;12.20;99.90
35603;DHT22;21725;50.836;4.368;2023-02-23T04:17:54;11.90;99.90
35603;DHT22;21725;50.836;4.368;2023-02-23T04:20:58;11.90;99.90
35603;DHT22;21725;50.836;4.368;2023-02-23T04:23:59;12.10;99.90
35603;DHT22;21725;50.836;4.368;2023-02-23T04:27:00;12.40;99.90
35603;DHT22;21725;50.836;4.368;2023-02-23T04:30:03;12.60;99.90
35603;DHT22;21725;50.836;4.368;2023-02-23T04:33:04;12.70;99.90
35603;DHT22;21725;50.836;4.368;2023-02-23T04:36:05;12.60;99.90
35603;DHT22;21725;50.836;4.368;2023-02-23T04:39:13;12.70;99.90
35603;DHT22;21725;50.836;4.368;2023-02-23T04:42:16;12.80;99.90
35603;DHT22;21725;50.836;4.368;2023-02-23T04:45:16;12.80;99.90
35603;DHT22;21725;50.836;4.368;2023-02-23T04:48:17;12.90;99.90
35603;DHT22;21725;50.836;4.368;2023-02-23T04:51:18;12.80;99.90
35603;DHT22;21725;50.836;4.368;2023-02-23T04:54:19;12.70;99.90
35603;DHT22;21725;50.836;4.368;2023-02-23T04:57:20;12.60;99.90
35603;DHT22;21725;50.836;4.368;2023-02-23T05:24:22;9.20;99.90
35603;DHT22;21725;50.836;4.368;2023-02-23T05:27:23;9.00;99.90
35603;DHT22;21725;50.836;4.368;2023-02-23T05:30:24;9.20;99.90
35603;DHT22;21725;50.836;4.368;2023-02-23T05:33:25;9.50;99.90
35603;DHT22;21725;50.836;4.368;2023-02-23T05:36:26;10.20;99.90
35603;DHT22;21725;50.836;4.368;2023-02-23T05:39:27;10.80;99.90
35603;DHT22;21725;50.836;4.368;2023-02-23T05:42:28;11.40;99.90
35603;DHT22;21725;50.836;4.368;2023-02-23T05:45:29;11.60;99.90
35603;DHT22;21725;50.836;4.368;2023-02-23T05:48:29;11.30;99.90
35603;DHT22;21725;50.836;4.368;2023-02-23T05:51:32;11.40;99.90
35603;DHT22;21725;50.836;4.368;2023-02-23T05:54:36;11.70;99.90
35603;DHT22;21725;50.836;4.368;2023-02-23T05:57:37;11.70;99.90
35603;DHT22;21725;50.836;4.368;2023-02-23T06:00:38;11.90;99.90
35603;DHT22;21725;50.836;4.368;2023-02-23T06:03:42;11.80;99.90
35603;DHT22;21725;50.836;4.368;2023-02-23T06:06:43;11.50;99.90
35603;DHT22;21725;50.836;4.368;2023-02-23T06:09:44;11.30;99.90
35603;DHT22;21725;50.836;4.368;2023-02-23T06:12:45;11.40;99.90
35603;DHT22;21725;50.836;4.368;2023-02-23T06:15:46;11.30;99.90
35603;DHT22;21725;50.836;4.368;2023-02-23T06:18:48;11.20;99.90
35603;DHT22;21725;50.836;4.368;2023-02-23T06:21:49;11.20;99.90
35603;DHT22;21725;50.836;4.368;2023-02-23T06:24:50;11.00;99.90
35603;DHT22;21725;50.836;4.368;2023-02-23T06:27:50;10.60;99.90
35603;DHT22;21725;50.836;4.368;2023-02-23T06:30:52;10.70;99.90
35603;DHT22;21725;50.836;4.368;2023-02-23T06:33:53;11.00;99.90
35603;DHT22;21725;50.836;4.368;2023-02-23T06:36:54;11.40;99.90
35603;DHT22;21725;50.836;4.368;2023-02-23T06:39:55;11.80;99.90
35603;DHT22;21725;50.836;4.368;2023-02-23T06:42:55;11.90;99.90
35603;DHT22;21725;50.836;4.368;2023-02-23T06:45:56;11.50;99.90
35603;DHT22;21725;50.836;4.368;2023-02-23T06:48:57;11.30;99.90
35603;DHT22;21725;50.836;4.368;2023-02-23T06:51:59;11.40;99.90
35603;DHT22;21725;50.836;4.368;2023-02-23T06:55:00;11.50;99.90
35603;DHT22;21725;50.836;4.368;2023-02-23T06:58:00;11.60;99.90
35603;DHT22;21725;50.836;4.368;2023-02-23T07:01:09;11.60;99.90
35603;DHT22;21725;50.836;4.368;2023-02-23T07:04:10;11.60;99.90
35603;DHT22;21725;50.836;4.368;2023-02-23T07:07:11;11.50;99.90
35603;DHT22;21725;50.836;4.368;2023-02-23T07:10:12;11.50;99.90
35603;DHT22;21725;50.836;4.368;2023-02-23T07:13:13;11.80;99.90
35603;DHT22;21725;50.836;4.368;2023-02-23T07:16:21;11.80;99.90
35603;DHT22;21725;50.836;4.368;2023-02-23T07:19:23;11.70;99.90
35603;DHT22;21725;50.836;4.368;2023-02-23T07:22:24;11.70;99.90
35603;DHT22;21725;50.836;4.368;2023-02-23T07:25:29;11.80;99.90
35603;DHT22;21725;50.836;4.368;2023-02-23T07:28:30;12.10;99.90
35603;DHT22;21725;50.836;4.368;2023-02-23T07:31:30;11.90;99.90
35603;DHT22;21725;50.836;4.368;2023-02-23T07:34:31;11.90;99.90
35603;DHT22;21725;50.836;4.368;2023-02-23T07:37:32;12.00;99.90
35603;DHT22;21725;50.836;4.368;2023-02-23T07:40:33;12.10;99.90
35603;DHT22;21725;50.836;4.368;2023-02-23T07:43:34;12.10;99.90
35603;DHT22;21725;50.836;4.368;2023-02-23T07:46:35;12.00;99.90
35603;DHT22;21725;50.836;4.368;2023-02-23T07:49:37;11.90;99.90
35603;DHT22;21725;50.836;4.368;2023-02-23T07:52:40;11.70;99.90
35603;DHT22;21725;50.836;4.368;2023-02-23T07:55:41;11.50;99.90
35603;DHT22;21725;50.836;4.368;2023-02-23T07:58:43;11.60;99.90
35603;DHT22;21725;50.836;4.368;2023-02-23T08:01:43;11.90;99.90
35603;DHT22;21725;50.836;4.368;2023-02-23T08:04:44;12.40;99.90
35603;DHT22;21725;50.836;4.368;2023-02-23T08:07:47;12.70;99.90
35603;DHT22;21725;50.836;4.368;2023-02-23T08:10:48;12.50;99.90
35603;DHT22;21725;50.836;4.368;2023-02-23T08:13:49;12.10;99.90
35603;DHT22;21725;50.836;4.368;2023-02-23T08:16:50;11.80;99.90
35603;DHT22;21725;50.836;4.368;2023-02-23T08:19:50;11.80;99.90
35603;DHT22;21725;50.836;4.368;2023-02-23T08:22:57;11.90;99.90
35603;DHT22;21725;50.836;4.368;2023-02-23T08:26:00;12.30;99.90
35603;DHT22;21725;50.836;4.368;2023-02-23T08:29:01;12.60;99.90
35603;DHT22;21725;50.836;4.368;2023-02-23T08:32:03;12.80;99.90
35603;DHT22;21725;50.836;4.368;2023-02-23T08:35:06;12.90;99.90
35603;DHT22;21725;50.836;4.368;2023-02-23T08:38:09;13.00;99.90
35603;DHT22;21725;50.836;4.368;2023-02-23T08:41:10;13.20;99.90
35603;DHT22;21725;50.836;4.368;2023-02-23T08:44:11;13.00;99.90
35603;DHT22;21725;50.836;4.368;2023-02-23T08:47:15;13.10;99.90
35603;DHT22;21725;50.836;4.368;2023-02-23T08:50:23;13.30;99.90
35603;DHT22;21725;50.836;4.368;2023-02-23T08:53:24;13.40;99.90
35603;DHT22;21725;50.836;4.368;2023-02-23T08:56:29;13.40;99.90
35603;DHT22;21725;50.836;4.368;2023-02-23T08:59:31;13.20;99.90
35603;DHT22;21725;50.836;4.368;2023-02-23T09:02:32;13.00;99.90
35603;DHT22;21725;50.836;4.368;2023-02-23T09:05:35;13.10;99.90
35603;DHT22;21725;50.836;4.368;2023-02-23T09:08:36;13.30;99.90
35603;DHT22;21725;50.836;4.368;2023-02-23T09:11:38;13.30;99.90
35603;DHT22;21725;50.836;4.368;2023-02-23T09:14:39;13.40;99.90
35603;DHT22;21725;50.836;4.368;2023-02-23T09:17:40;13.30;99.90
35603;DHT22;21725;50.836;4.368;2023-02-23T09:20:44;13.10;99.90
35603;DHT22;21725;50.836;4.368;2023-02-23T09:23:45;12.80;99.90
35603;DHT22;21725;50.836;4.368;2023-02-23T09:26:49;12.70;99.90
35603;DHT22;21725;50.836;4.368;2023-02-23T09:29:49;12.80;99.90
35603;DHT22;21725;50.836;4.368;2023-02-23T09:32:54;12.90;99.90
35603;DHT22;21725;50.836;4.368;2023-02-23T09:35:55;13.10;99.90
35603;DHT22;21725;50.836;4.368;2023-02-23T09:38:57;13.20;99.90
35603;DHT22;21725;50.836;4.368;2023-02-23T09:45:34;12.70;99.90
35603;DHT22;21725;50.836;4.368;2023-02-23T09:48:38;12.60;99.90
35603;DHT22;21725;50.836;4.368;2023-02-23T09:51:42;12.40;99.90
35603;DHT22;21725;50.836;4.368;2023-02-23T09:54:46;12.40;99.90
35603;DHT22;21725;50.836;4.368;2023-02-23T09:57:48;12.00;99.90
35603;DHT22;21725;50.836;4.368;2023-02-23T10:04:21;12.30;99.90
35603;DHT22;21725;50.836;4.368;2023-02-23T10:23:54;12.10;99.90
35603;DHT22;21725;50.836;4.368;2023-02-23T10:27:01;12.10;99.90
35603;DHT22;21725;50.836;4.368;2023-02-23T10:33:33;11.80;99.90
35603;DHT22;21725;50.836;4.368;2023-02-23T10:36:40;12.20;99.90
35603;DHT22;21725;50.836;4.368;2023-02-23T10:39:43;12.30;99.90
35603;DHT22;21725;50.836;4.368;2023-02-23T10:42:44;11.90;99.90
35603;DHT22;21725;50.836;4.368;2023-02-23T10:45:47;11.80;99.90
35603;DHT22;21725;50.836;4.368;2023-02-23T10:48:50;12.00;99.90
35603;DHT22;21725;50.836;4.368;2023-02-23T10:51:52;12.20;99.90
35603;DHT22;21725;50.836;4.368;2023-02-23T10:54:57;12.10;99.90
35603;DHT22;21725;50.836;4.368;2023-02-23T10:58:09;12.00;99.90
35603;DHT22;21725;50.836;4.368;2023-02-23T11:22:19;10.70;99.90
35603;DHT22;21725;50.836;4.368;2023-02-23T11:25:30;10.50;99.90
35603;DHT22;21725;50.836;4.368;2023-02-23T11:28:41;10.80;99.90
35603;DHT22;21725;50.836;4.368;2023-02-23T11:31:48;11.20;99.90
35603;DHT22;21725;50.836;4.368;2023-02-23T11:35:24;11.70;99.90
35603;DHT22;21725;50.836;4.368;2023-02-23T11:38:30;11.90;99.90
35603;DHT22;21725;50.836;4.368;2023-02-23T11:41:32;12.00;99.90
35603;DHT22;21725;50.836;4.368;2023-02-23T11:44:34;12.00;99.90
35603;DHT22;21725;50.836;4.368;2023-02-23T11:47:46;11.70;99.90
35603;DHT22;21725;50.836;4.368;2023-02-23T11:50:48;11.90;99.90
35603;DHT22;21725;50.836;4.368;2023-02-23T11:53:49;12.60;99.90
35603;DHT22;21725;50.836;4.368;2023-02-23T11:56:51;13.10;99.90
35603;DHT22;21725;50.836;4.368;2023-02-23T11:59:56;13.40;99.90
35603;DHT22;21725;50.836;4.368;2023-02-23T12:02:59;13.20;99.90
35603;DHT22;21725;50.836;4.368;2023-02-23T12:06:00;13.40;99.90
35603;DHT22;21725;50.836;4.368;2023-02-23T12:12:13;13.80;99.90
35603;DHT22;21725;50.836;4.368;2023-02-23T12:22:14;13.70;99.90
35603;DHT22;21725;50.836;4.368;2023-02-23T12:25:30;13.60;99.90
35603;DHT22;21725;50.836;4.368;2023-02-23T12:28:36;13.70;99.90
35603;DHT22;21725;50.836;4.368;2023-02-23T12:31:55;14.10;99.90
35603;DHT22;21725;50.836;4.368;2023-02-23T12:35:00;14.40;99.90
35603;DHT22;21725;50.836;4.368;2023-02-23T12:38:14;14.40;99.90
35603;DHT22;21725;50.836;4.368;2023-02-23T12:41:25;14.40;99.90
35603;DHT22;21725;50.836;4.368;2023-02-23T12:48:01;14.20;99.90
35603;DHT22;21725;50.836;4.368;2023-02-23T12:51:11;14.40;99.90
35603;DHT22;21725;50.836;4.368;2023-02-23T12:54:16;14.00;99.90
35603;DHT22;21725;50.836;4.368;2023-02-23T12:57:41;14.10;99.90
35603;DHT22;21725;50.836;4.368;2023-02-23T13:00:59;13.80;99.90
35603;DHT22;21725;50.836;4.368;2023-02-23T13:08:01;13.70;99.90
35603;DHT22;21725;50.836;4.368;2023-02-23T13:24:18;13.70;99.90
35603;DHT22;21725;50.836;4.368;2023-02-23T13:27:27;13.10;99.90
35603;DHT22;21725;50.836;4.368;2023-02-23T13:30:33;13.00;99.90
35603;DHT22;21725;50.836;4.368;2023-02-23T13:33:36;13.00;99.90
35603;DHT22;21725;50.836;4.368;2023-02-23T13:36:38;12.90;99.90
35603;DHT22;21725;50.836;4.368;2023-02-23T13:39:51;12.70;99.90
35603;DHT22;21725;50.836;4.368;2023-02-23T13:46:46;12.60;99.90
35603;DHT22;21725;50.836;4.368;2023-02-23T13:49:59;12.50;99.90
35603;DHT22;21725;50.836;4.368;2023-02-23T13:53:06;12.30;99.90
35603;DHT22;21725;50.836;4.368;2023-02-23T13:56:18;12.40;99.90
35603;DHT22;21725;50.836;4.368;2023-02-23T13:59:24;12.40;99.90
35603;DHT22;21725;50.836;4.368;2023-02-23T14:02:39;12.70;99.90
35603;DHT22;21725;50.836;4.368;2023-02-23T14:05:43;12.60;99.90
35603;DHT22;21725;50.836;4.368;2023-02-23T14:08:54;12.80;99.90
35603;DHT22;21725;50.836;4.368;2023-02-23T14:12:13;13.40;99.90
35603;DHT22;21725;50.836;4.368;2023-02-23T14:15:40;13.70;99.90
35603;DHT22;21725;50.836;4.368;2023-02-23T14:22:28;13.90;99.90
35603;DHT22;21725;50.836;4.368;2023-02-23T14:38:33;13.40;99.90
35603;DHT22;21725;50.836;4.368;2023-02-23T14:44:37;13.10;99.90
35603;DHT22;21725;50.836;4.368;2023-02-23T14:47:46;13.40;99.90
35603;DHT22;21725;50.836;4.368;2023-02-23T14:50:47;13.50;99.90
35603;DHT22;21725;50.836;4.368;2023-02-23T14:53:48;13.60;99.90
35603;DHT22;21725;50.836;4.368;2023-02-23T14:56:55;14.10;99.90
35603;DHT22;21725;50.836;4.368;2023-02-23T14:59:59;14.30;99.90
35603;DHT22;21725;50.836;4.368;2023-02-23T15:03:05;14.40;99.90
35603;DHT22;21725;50.836;4.368;2023-02-23T15:06:09;14.60;99.70
35603;DHT22;21725;50.836;4.368;2023-02-23T15:09:26;14.50;99.50
35603;DHT22;21725;50.836;4.368;2023-02-23T15:12:34;14.20;99.10
35603;DHT22;21725;50.836;4.368;2023-02-23T15:15:41;14.10;99.80
35603;DHT22;21725;50.836;4.368;2023-02-23T15:18:44;13.60;99.90
35603;DHT22;21725;50.836;4.368;2023-02-23T15:21:53;13.10;99.90
35603;DHT22;21725;50.836;4.368;2023-02-23T15:24:58;13.10;99.90
35603;DHT22;21725;50.836;4.368;2023-02-23T15:28:41;13.10;99.90
35603;DHT22;21725;50.836;4.368;2023-02-23T15:31:36;13.10;99.90
35603;DHT22;21725;50.836;4.368;2023-02-23T15:34:40;13.10;99.50
35603;DHT22;21725;50.836;4.368;2023-02-23T15:37:43;13.10;99.20
35603;DHT22;21725;50.836;4.368;2023-02-23T15:40:47;13.10;99.50
35603;DHT22;21725;50.836;4.368;2023-02-23T15:43:50;13.50;99.20
35603;DHT22;21725;50.836;4.368;2023-02-23T15:47:04;13.70;99.20
35603;DHT22;21725;50.836;4.368;2023-02-23T15:50:22;13.80;99.10
35603;DHT22;21725;50.836;4.368;2023-02-23T15:53:39;13.90;99.30
35603;DHT22;21725;50.836;4.368;2023-02-23T15:56:40;13.80;99.10
35603;DHT22;21725;50.836;4.368;2023-02-23T15:59:47;13.30;99.00
35603;DHT22;21725;50.836;4.368;2023-02-23T16:02:48;13.20;99.00
35603;DHT22;21725;50.836;4.368;2023-02-23T16:09:25;13.80;97.80
35603;DHT22;21725;50.836;4.368;2023-02-23T16:12:35;13.70;97.80
35603;DHT22;21725;50.836;4.368;2023-02-23T16:15:39;13.70;97.70
35603;DHT22;21725;50.836;4.368;2023-02-23T16:18:41;13.40;98.00
35603;DHT22;21725;50.836;4.368;2023-02-23T16:21:47;13.10;98.70
35603;DHT22;21725;50.836;4.368;2023-02-23T16:24:58;13.10;98.90
35603;DHT22;21725;50.836;4.368;2023-02-23T16:28:02;13.20;99.10
35603;DHT22;21725;50.836;4.368;2023-02-23T16:31:06;13.00;99.20
35603;DHT22;21725;50.836;4.368;2023-02-23T16:34:40;12.30;99.90
35603;DHT22;21725;50.836;4.368;2023-02-23T16:38:14;12.10;99.90
35603;DHT22;21725;50.836;4.368;2023-02-23T16:41:18;11.90;99.90
35603;DHT22;21725;50.836;4.368;2023-02-23T16:44:20;11.80;99.90
35603;DHT22;21725;50.836;4.368;2023-02-23T16:50:25;12.10;99.90
35603;DHT22;21725;50.836;4.368;2023-02-23T16:53:26;12.20;99.90
35603;DHT22;21725;50.836;4.368;2023-02-23T16:56:27;12.40;99.90
35603;DHT22;21725;50.836;4.368;2023-02-23T16:59:30;12.40;99.90
35603;DHT22;21725;50.836;4.368;2023-02-23T17:22:49;10.00;99.90
35603;DHT22;21725;50.836;4.368;2023-02-23T17:25:49;10.00;99.90
35603;DHT22;21725;50.836;4.368;2023-02-23T17:28:51;10.30;99.90
35603;DHT22;21725;50.836;4.368;2023-02-23T17:31:53;10.90;99.90
35603;DHT22;21725;50.836;4.368;2023-02-23T17:34:54;11.20;99.90
35603;DHT22;21725;50.836;4.368;2023-02-23T17:37:55;10.70;99.90
35603;DHT22;21725;50.836;4.368;2023-02-23T17:41:08;11.40;99.90
35603;DHT22;21725;50.836;4.368;2023-02-23T17:44:11;11.90;99.90
35603;DHT22;21725;50.836;4.368;2023-02-23T17:47:12;12.10;99.90
35603;DHT22;21725;50.836;4.368;2023-02-23T17:50:13;11.90;99.90
35603;DHT22;21725;50.836;4.368;2023-02-23T17:53:14;11.50;99.90
35603;DHT22;21725;50.836;4.368;2023-02-23T17:56:15;11.20;99.90
35603;DHT22;21725;50.836;4.368;2023-02-23T17:59:17;11.30;99.90
35603;DHT22;21725;50.836;4.368;2023-02-23T18:02:19;11.40;99.90
35603;DHT22;21725;50.836;4.368;2023-02-23T18:05:20;11.70;99.90
35603;DHT22;21725;50.836;4.368;2023-02-23T18:08:21;11.90;99.90
35603;DHT22;21725;50.836;4.368;2023-02-23T18:11:22;11.90;99.90
35603;DHT22;21725;50.836;4.368;2023-02-23T18:14:23;11.90;99.90
35603;DHT22;21725;50.836;4.368;2023-02-23T18:17:24;12.00;99.90
35603;DHT22;21725;50.836;4.368;2023-02-23T18:20:25;12.00;99.90
35603;DHT22;21725;50.836;4.368;2023-02-23T18:23:28;12.30;99.90
35603;DHT22;21725;50.836;4.368;2023-02-23T18:26:31;12.40;99.90
35603;DHT22;21725;50.836;4.368;2023-02-23T18:29:34;12.40;99.90
35603;DHT22;21725;50.836;4.368;2023-02-23T18:32:35;12.40;99.90
35603;DHT22;21725;50.836;4.368;2023-02-23T18:35:38;12.30;99.90
35603;DHT22;21725;50.836;4.368;2023-02-23T18:38:39;12.20;99.90
35603;DHT22;21725;50.836;4.368;2023-02-23T18:41:43;12.00;99.90
35603;DHT22;21725;50.836;4.368;2023-02-23T18:44:44;12.00;99.90
35603;DHT22;21725;50.836;4.368;2023-02-23T18:47:45;12.10;99.90
35603;DHT22;21725;50.836;4.368;2023-02-23T18:50:46;12.50;99.90
35603;DHT22;21725;50.836;4.368;2023-02-23T18:53:48;12.90;99.90
35603;DHT22;21725;50.836;4.368;2023-02-23T18:56:49;13.10;99.90
35603;DHT22;21725;50.836;4.368;2023-02-23T18:59:51;13.10;99.90
35603;DHT22;21725;50.836;4.368;2023-02-23T19:02:52;13.10;99.90
35603;DHT22;21725;50.836;4.368;2023-02-23T19:05:53;13.00;99.90
35603;DHT22;21725;50.836;4.368;2023-02-23T19:08:55;12.70;99.90
35603;DHT22;21725;50.836;4.368;2023-02-23T19:11:58;12.60;99.90
35603;DHT22;21725;50.836;4.368;2023-02-23T19:14:59;12.40;99.90
35603;DHT22;21725;50.836;4.368;2023-02-23T19:18:00;12.00;99.90
35603;DHT22;21725;50.836;4.368;2023-02-23T19:21:02;11.80;99.90
35603;DHT22;21725;50.836;4.368;2023-02-23T19:24:04;11.80;99.90
35603;DHT22;21725;50.836;4.368;2023-02-23T19:27:06;11.90;99.90
35603;DHT22;21725;50.836;4.368;2023-02-23T19:30:10;12.00;99.90
35603;DHT22;21725;50.836;4.368;2023-02-23T19:33:11;12.00;99.90
35603;DHT22;21725;50.836;4.368;2023-02-23T19:36:16;11.80;99.90
35603;DHT22;21725;50.836;4.368;2023-02-23T19:39:17;11.60;99.90
35603;DHT22;21725;50.836;4.368;2023-02-23T19:42:18;11.30;99.90
35603;DHT22;21725;50.836;4.368;2023-02-23T19:45:19;11.40;99.90
35603;DHT22;21725;50.836;4.368;2023-02-23T19:48:23;11.60;99.90
35603;DHT22;21725;50.836;4.368;2023-02-23T19:51:26;11.80;99.90
35603;DHT22;21725;50.836;4.368;2023-02-23T19:54:27;11.90;99.90
35603;DHT22;21725;50.836;4.368;2023-02-23T19:57:34;12.00;99.90
35603;DHT22;21725;50.836;4.368;2023-02-23T20:00:35;12.00;99.90
35603;DHT22;21725;50.836;4.368;2023-02-23T20:03:37;12.10;99.90
35603;DHT22;21725;50.836;4.368;2023-02-23T20:06:42;12.10;99.90
35603;DHT22;21725;50.836;4.368;2023-02-23T20:09:46;12.20;99.90
35603;DHT22;21725;50.836;4.368;2023-02-23T20:12:47;12.20;99.90
35603;DHT22;21725;50.836;4.368;2023-02-23T20:15:48;12.20;99.90
35603;DHT22;21725;50.836;4.368;2023-02-23T20:18:49;12.20;99.90
35603;DHT22;21725;50.836;4.368;2023-02-23T20:21:50;12.10;99.90
35603;DHT22;21725;50.836;4.368;2023-02-23T20:24:50;11.80;99.90
35603;DHT22;21725;50.836;4.368;2023-02-23T20:27:56;11.70;99.90
35603;DHT22;21725;50.836;4.368;2023-02-23T20:30:59;11.50;99.90
35603;DHT22;21725;50.836;4.368;2023-02-23T20:34:03;11.40;99.90
35603;DHT22;21725;50.836;4.368;2023-02-23T20:37:05;11.50;99.90
35603;DHT22;21725;50.836;4.368;2023-02-23T20:40:06;11.60;99.90
35603;DHT22;21725;50.836;4.368;2023-02-23T20:43:17;11.70;99.90
35603;DHT22;21725;50.836;4.368;2023-02-23T20:46:18;11.20;99.90
35603;DHT22;21725;50.836;4.368;2023-02-23T20:49:19;10.80;99.90
35603;DHT22;21725;50.836;4.368;2023-02-23T20:52:22;10.50;99.90
35603;DHT22;21725;50.836;4.368;2023-02-23T20:55:22;10.10;99.90
35603;DHT22;21725;50.836;4.368;2023-02-23T20:58:26;9.90;99.90
35603;DHT22;21725;50.836;4.368;2023-02-23T21:01:28;9.50;99.90
35603;DHT22;21725;50.836;4.368;2023-02-23T21:04:31;9.20;99.90
35603;DHT22;21725;50.836;4.368;2023-02-23T21:07:34;9.30;99.90
35603;DHT22;21725;50.836;4.368;2023-02-23T21:10:37;9.10;99.90
35603;DHT22;21725;50.836;4.368;2023-02-23T21:13:38;8.70;99.90
35603;DHT22;21725;50.836;4.368;2023-02-23T21:16:41;8.70;99.90
35603;DHT22;21725;50.836;4.368;2023-02-23T21:19:45;8.60;99.90
35603;DHT22;21725;50.836;4.368;2023-02-23T21:22:46;8.60;99.90
35603;DHT22;21725;50.836;4.368;2023-02-23T21:25:48;8.70;99.90
35603;DHT22;21725;50.836;4.368;2023-02-23T21:28:53;8.50;99.90
35603;DHT22;21725;50.836;4.368;2023-02-23T21:31:53;8.50;99.90
35603;DHT22;21725;50.836;4.368;2023-02-23T21:34:55;8.60;99.90
35603;DHT22;21725;50.836;4.368;2023-02-23T21:37:56;8.80;99.90
35603;DHT22;21725;50.836;4.368;2023-02-23T21:40:56;8.70;99.90
35603;DHT22;21725;50.836;4.368;2023-02-23T21:43:58;8.70;99.90
35603;DHT22;21725;50.836;4.368;2023-02-23T21:46:59;8.70;99.90
35603;DHT22;21725;50.836;4.368;2023-02-23T21:50:04;9.00;99.90
35603;DHT22;21725;50.836;4.368;2023-02-23T21:53:06;9.30;99.90
35603;DHT22;21725;50.836;4.368;2023-02-23T21:56:20;9.20;99.90
35603;DHT22;21725;50.836;4.368;2023-02-23T21:59:21;9.10;99.90
35603;DHT22;21725;50.836;4.368;2023-02-23T22:02:22;9.30;99.90
35603;DHT22;21725;50.836;4.368;2023-02-23T22:05:23;9.40;99.90
35603;DHT22;21725;50.836;4.368;2023-02-23T22:08:24;9.40;99.90
35603;DHT22;21725;50.836;4.368;2023-02-23T22:11:27;9.00;99.90
35603;DHT22;21725;50.836;4.368;2023-02-23T22:14:28;9.00;99.90
35603;DHT22;21725;50.836;4.368;2023-02-23T22:17:29;8.90;99.90
35603;DHT22;21725;50.836;4.368;2023-02-23T22:20:32;8.90;99.90
35603;DHT22;21725;50.836;4.368;2023-02-23T22:23:33;9.10;99.90
35603;DHT22;21725;50.836;4.368;2023-02-23T22:26:38;9.50;99.90
35603;DHT22;21725;50.836;4.368;2023-02-23T22:29:41;9.30;99.90
35603;DHT22;21725;50.836;4.368;2023-02-23T22:32:42;9.10;99.90
35603;DHT22;21725;50.836;4.368;2023-02-23T22:35:43;9.30;99.90
35603;DHT22;21725;50.836;4.368;2023-02-23T22:38:44;9.40;99.90
35603;DHT22;21725;50.836;4.368;2023-02-23T22:41:46;9.20;99.90
35603;DHT22;21725;50.836;4.368;2023-02-23T22:44:47;8.80;99.90